createdAt,value
2018-07-13T00:02:20.815Z,21.50
2018-07-13T00:07:18.024Z,21.50
2018-07-13T00:09:46.838Z,21.50
2018-07-13T00:12:15.660Z,21.50
2018-07-13T00:15:15.548Z,21.40
2018-07-13T00:17:44.336Z,21.40
2018-07-13T00:20:13.150Z,21.30
2018-07-13T00:22:42.394Z,21.30
2018-07-13T00:25:11.231Z,21.30
2018-07-13T00:27:40.027Z,21.30
2018-07-13T00:30:09.078Z,21.20
2018-07-13T00:32:37.867Z,21.20
2018-07-13T00:35:06.655Z,21.30
2018-07-13T00:37:35.698Z,21.20
2018-07-13T00:42:33.407Z,21.20
2018-07-13T00:45:02.188Z,21.20
2018-07-13T00:47:30.965Z,21.20
2018-07-13T00:49:59.744Z,21.20
2018-07-13T00:52:28.638Z,21.20
2018-07-13T00:54:57.414Z,21.20
2018-07-13T00:57:26.207Z,21.10
2018-07-13T00:59:55.352Z,21.20
2018-07-13T01:02:24.156Z,21.20
2018-07-13T01:04:52.954Z,21.10
2018-07-13T01:07:21.753Z,21.10
2018-07-13T01:09:50.534Z,21.10
2018-07-13T01:12:19.312Z,21.10
2018-07-13T01:14:48.135Z,21.10
2018-07-13T01:17:17.971Z,21.10
2018-07-13T01:19:46.763Z,21.10
2018-07-13T01:22:15.731Z,21.10
2018-07-13T01:24:44.617Z,21.10
2018-07-13T01:27:13.391Z,20.90
2018-07-13T01:29:42.414Z,20.90
2018-07-13T01:32:11.178Z,20.90
2018-07-13T01:34:39.962Z,20.90
2018-07-13T01:37:08.793Z,20.90
2018-07-13T01:39:37.578Z,20.90
2018-07-13T01:42:06.442Z,20.80
2018-07-13T01:44:35.597Z,20.80
2018-07-13T01:47:04.369Z,20.90
2018-07-13T01:49:33.177Z,20.80
2018-07-13T01:54:30.381Z,20.70
2018-07-13T01:56:59.170Z,20.80
2018-07-13T01:59:28.082Z,20.80
2018-07-13T02:01:56.873Z,20.70
2018-07-13T02:04:25.656Z,20.70
2018-07-13T02:06:54.507Z,20.70
2018-07-13T02:09:23.307Z,20.70
2018-07-13T02:11:52.572Z,20.60
2018-07-13T02:14:21.788Z,20.60
2018-07-13T02:16:50.570Z,20.50
2018-07-13T02:19:19.319Z,20.50
2018-07-13T02:21:48.405Z,20.50
2018-07-13T02:24:17.178Z,20.40
2018-07-13T02:26:45.964Z,20.50
2018-07-13T02:29:14.761Z,20.40
2018-07-13T02:31:43.547Z,20.40
2018-07-13T02:34:12.382Z,20.40
2018-07-13T02:36:41.342Z,20.30
2018-07-13T02:39:11.288Z,20.40
2018-07-13T02:41:40.441Z,20.30
2018-07-13T02:44:09.330Z,20.20
2018-07-13T02:46:38.090Z,20.20
2018-07-13T02:51:35.282Z,20.20
2018-07-13T02:54:04.111Z,20.10
2018-07-13T02:56:32.904Z,20.10
2018-07-13T02:59:01.703Z,20.10
2018-07-13T03:03:58.900Z,20.00
2018-07-13T03:06:28.156Z,20.10
2018-07-13T03:08:56.932Z,20.00
2018-07-13T03:11:25.727Z,20.10
2018-07-13T03:13:54.666Z,20.10
2018-07-13T03:16:23.475Z,20.10
2018-07-13T03:18:52.424Z,20.00
2018-07-13T03:21:21.239Z,20.00
2018-07-13T03:23:49.987Z,20.00
2018-07-13T03:26:18.793Z,20.00
2018-07-13T03:28:47.936Z,20.10
2018-07-13T03:31:16.785Z,20.10
2018-07-13T03:33:45.628Z,20.10
2018-07-13T03:36:14.454Z,20.10
2018-07-13T03:38:43.449Z,20.10
2018-07-13T03:41:12.483Z,20.20
2018-07-13T03:48:38.488Z,20.40
2018-07-13T03:53:36.007Z,20.40
2018-07-13T03:56:05.137Z,20.50
2018-07-13T04:01:02.787Z,20.50
2018-07-13T04:08:28.630Z,20.60
2018-07-13T04:10:57.371Z,20.70
2018-07-13T04:13:26.622Z,20.80
2018-07-13T04:15:55.499Z,20.90
2018-07-13T04:18:25.101Z,20.90
2018-07-13T04:20:54.523Z,20.90
2018-07-13T04:23:24.325Z,21.00
2018-07-13T04:25:53.413Z,21.00
2018-07-13T04:28:22.833Z,21.00
2018-07-13T04:30:51.793Z,21.10
2018-07-13T04:33:20.617Z,21.10
2018-07-13T04:35:49.658Z,21.20
2018-07-13T04:38:18.438Z,21.30
2018-07-13T04:40:47.284Z,21.40
2018-07-13T04:43:16.084Z,21.40
2018-07-13T04:45:44.993Z,21.50
2018-07-13T04:50:42.546Z,21.60
2018-07-13T04:55:39.882Z,21.80
2018-07-13T04:58:08.906Z,21.80
2018-07-13T05:00:37.893Z,21.90
2018-07-13T05:03:06.826Z,22.00
2018-07-13T05:05:35.724Z,22.10
2018-07-13T05:08:04.638Z,22.20
2018-07-13T05:10:33.444Z,22.30
2018-07-13T05:13:02.288Z,22.40
2018-07-13T05:15:31.072Z,22.50
2018-07-13T05:17:59.914Z,22.60
2018-07-13T05:22:57.297Z,22.80
2018-07-13T05:25:26.199Z,22.80
2018-07-13T05:27:55.119Z,23.00
2018-07-13T05:30:24.154Z,23.10
2018-07-13T05:32:53.062Z,23.20
2018-07-13T05:35:22.524Z,23.30
2018-07-13T05:37:51.408Z,23.40
2018-07-13T05:40:20.330Z,23.60
2018-07-13T05:42:49.321Z,23.70
2018-07-13T05:50:15.363Z,24.20
2018-07-13T05:52:44.306Z,24.30
2018-07-13T05:55:13.289Z,24.50
2018-07-13T05:57:42.249Z,24.70
2018-07-13T06:00:11.197Z,24.90
2018-07-13T06:02:40.108Z,25.10
2018-07-13T06:05:09.217Z,25.30
2018-07-13T06:07:38.298Z,25.50
2018-07-13T06:12:35.779Z,26.00
2018-07-13T06:15:04.843Z,26.10
2018-07-13T06:17:33.561Z,26.30
2018-07-13T06:22:30.858Z,26.80
2018-07-13T06:24:59.774Z,27.00
2018-07-13T06:29:57.168Z,27.60
2018-07-13T06:32:26.248Z,27.80
2018-07-13T06:34:55.099Z,28.10
2018-07-13T06:37:23.988Z,28.30
2018-07-13T06:39:52.904Z,28.30
2018-07-13T06:42:21.841Z,28.50
2018-07-13T06:44:50.749Z,29.00
2018-07-13T06:47:19.592Z,29.10
2018-07-13T06:49:48.665Z,29.10
2018-07-13T06:52:17.513Z,29.50
2018-07-13T06:54:46.351Z,29.50
2018-07-13T06:58:24.639Z,29.70
2018-07-13T07:00:59.269Z,30.10
2018-07-13T07:03:29.505Z,30.20
2018-07-13T07:06:04.572Z,30.60
2018-07-13T07:08:33.638Z,30.70
2018-07-13T07:11:02.587Z,30.90
2018-07-13T07:13:34.906Z,31.20
2018-07-13T07:16:03.793Z,31.40
2018-07-13T07:18:32.597Z,31.70
2018-07-13T07:21:01.818Z,32.00
2018-07-13T07:23:31.181Z,32.40
2018-07-13T07:26:01.159Z,32.60
2018-07-13T07:28:30.598Z,32.80
2018-07-13T07:31:00.457Z,33.10
2018-07-13T07:33:29.281Z,33.40
2018-07-13T07:35:58.121Z,33.70
2018-07-13T07:38:26.910Z,34.00
2018-07-13T07:40:55.807Z,34.20
2018-07-13T07:43:24.739Z,34.70
2018-07-13T07:45:53.514Z,35.10
2018-07-13T07:48:22.291Z,35.30
2018-07-13T07:50:51.234Z,35.50
2018-07-13T07:53:20.104Z,35.60
2018-07-13T07:55:48.939Z,35.70
2018-07-13T07:58:17.819Z,35.80
2018-07-13T08:03:15.017Z,37.00
2018-07-13T08:05:43.833Z,37.90
2018-07-13T08:08:12.647Z,38.80
2018-07-13T08:10:41.445Z,39.70
2018-07-13T08:13:10.646Z,40.60
2018-07-13T08:15:39.465Z,41.60
2018-07-13T08:25:35.907Z,44.70
2018-07-13T08:28:05.073Z,45.30
2018-07-13T08:30:36.349Z,45.90
2018-07-13T08:33:05.152Z,46.60
2018-07-13T08:35:34.211Z,47.20
2018-07-13T08:38:03.112Z,47.50
2018-07-13T08:40:32.012Z,47.80
2018-07-13T08:43:01.033Z,48.30
2018-07-13T08:45:29.882Z,48.20
2018-07-13T08:47:58.682Z,48.10
2018-07-13T08:50:28.093Z,48.10
2018-07-13T08:52:57.499Z,48.40
2018-07-13T08:55:26.433Z,48.50
2018-07-13T08:57:55.483Z,48.90
2018-07-13T09:00:24.399Z,49.30
2018-07-13T09:02:53.240Z,49.40
2018-07-13T09:05:22.308Z,48.50
2018-07-13T09:07:51.179Z,48.30
2018-07-13T09:10:20.035Z,47.80
2018-07-13T09:12:48.889Z,46.80
2018-07-13T09:15:17.803Z,46.90
2018-07-13T09:17:46.618Z,47.30
2018-07-13T09:20:15.856Z,47.70
2018-07-13T09:22:44.691Z,47.80
2018-07-13T09:25:13.520Z,48.00
2018-07-13T09:27:42.792Z,48.40
2018-07-13T09:30:12.441Z,48.90
2018-07-13T09:32:41.488Z,48.90
2018-07-13T09:35:10.358Z,48.90
2018-07-13T09:37:39.264Z,49.00
2018-07-13T09:40:08.187Z,49.30
2018-07-13T09:42:37.168Z,49.60
2018-07-13T09:45:06.036Z,49.70
2018-07-13T09:47:35.658Z,50.20
2018-07-13T09:50:04.682Z,50.20
2018-07-13T09:55:04.833Z,51.10
2018-07-13T09:57:33.649Z,51.50
2018-07-13T10:00:02.444Z,51.60
2018-07-13T10:02:31.277Z,51.60
2018-07-13T10:05:00.170Z,51.60
2018-07-13T10:07:29.051Z,51.60
2018-07-13T10:09:57.913Z,51.40
2018-07-13T10:12:26.945Z,51.40
2018-07-13T10:14:55.830Z,51.60
2018-07-13T10:17:24.723Z,51.80
2018-07-13T10:19:53.813Z,52.10
2018-07-13T10:22:25.456Z,52.30
2018-07-13T10:27:23.874Z,52.00
2018-07-13T10:29:54.700Z,52.00
2018-07-13T10:32:24.186Z,52.40
2018-07-13T10:34:53.781Z,52.10
2018-07-13T10:37:22.950Z,52.00
2018-07-13T10:39:52.190Z,51.80
2018-07-13T10:42:20.984Z,50.80
2018-07-13T10:44:49.791Z,50.40
2018-07-13T10:47:18.652Z,49.40
2018-07-13T10:52:15.859Z,48.80
2018-07-13T10:54:44.678Z,47.80
2018-07-13T10:57:13.449Z,47.80
2018-07-13T10:59:42.221Z,47.20
2018-07-13T11:02:11.121Z,46.10
2018-07-13T11:07:08.289Z,45.10
2018-07-13T11:09:37.100Z,44.60
2018-07-13T11:19:31.071Z,41.60
2018-07-13T11:21:59.943Z,41.00
2018-07-13T11:24:28.780Z,40.50
2018-07-13T11:31:54.564Z,38.80
2018-07-13T11:34:23.347Z,38.40
2018-07-13T11:36:52.203Z,38.10
2018-07-13T11:39:21.081Z,37.80
2018-07-13T11:41:49.935Z,37.40
2018-07-13T11:44:18.806Z,36.70
2018-07-13T11:46:47.585Z,36.20
2018-07-13T11:49:16.386Z,35.50
2018-07-13T11:51:45.259Z,35.10
2018-07-13T11:56:42.633Z,34.40
2018-07-13T11:59:11.407Z,34.20
2018-07-13T12:01:40.347Z,33.70
2018-07-13T12:04:09.117Z,33.40
2018-07-13T12:06:37.910Z,33.10
2018-07-13T12:09:10.287Z,32.70
2018-07-13T12:11:39.069Z,32.30
2018-07-13T12:14:07.886Z,31.80
2018-07-13T12:16:36.715Z,31.40
2018-07-13T12:19:05.576Z,30.80
2018-07-13T12:24:02.789Z,29.30
2018-07-13T12:26:31.597Z,28.80
2018-07-13T12:29:00.418Z,28.50
2018-07-13T12:31:29.240Z,28.30
2018-07-13T12:33:58.133Z,28.30
2018-07-13T12:36:27.177Z,28.40
2018-07-13T12:38:56.401Z,28.50
2018-07-13T12:41:25.187Z,28.60
2018-07-13T12:43:53.969Z,28.60
2018-07-13T12:46:22.756Z,28.70
2018-07-13T12:48:51.587Z,28.70
2018-07-13T12:51:20.363Z,28.80
2018-07-13T12:53:49.199Z,28.90
2018-07-13T12:56:18.106Z,28.90
2018-07-13T12:58:46.879Z,28.70
2018-07-13T13:01:15.873Z,28.80
2018-07-13T13:03:44.764Z,28.80
2018-07-13T13:08:42.077Z,28.80
2018-07-13T13:11:10.939Z,28.80
2018-07-13T13:13:39.718Z,28.80
2018-07-13T13:16:08.907Z,28.80
2018-07-13T13:21:06.129Z,28.80
2018-07-13T13:23:35.056Z,28.90
2018-07-13T13:28:32.317Z,29.00
2018-07-13T13:31:01.256Z,29.00
2018-07-13T13:33:30.049Z,29.00
2018-07-13T13:35:58.866Z,29.00
2018-07-13T13:38:28.132Z,28.80
2018-07-13T13:43:25.379Z,28.80
2018-07-13T13:45:54.219Z,28.80
2018-07-13T13:48:23.057Z,28.80
2018-07-13T13:50:51.829Z,28.80
2018-07-13T13:53:20.663Z,28.90
2018-07-13T13:55:49.457Z,29.00
2018-07-13T13:58:18.396Z,29.10
2018-07-13T14:00:47.405Z,29.10
2018-07-13T14:03:16.272Z,29.30
2018-07-13T14:05:45.685Z,29.40
2018-07-13T14:08:14.680Z,29.40
2018-07-13T14:10:43.530Z,29.50
2018-07-13T14:13:12.310Z,29.40
2018-07-13T14:15:41.127Z,29.40
2018-07-13T14:20:39.224Z,29.30
2018-07-13T14:23:08.297Z,29.30
2018-07-13T14:25:37.082Z,29.30
2018-07-13T14:28:05.903Z,29.30
2018-07-13T14:30:35.030Z,29.40
2018-07-13T14:33:03.814Z,29.40
2018-07-13T14:35:32.629Z,29.40
2018-07-13T14:38:01.633Z,29.40
2018-07-13T14:40:30.419Z,29.50
2018-07-13T14:42:59.385Z,29.40
2018-07-13T14:45:28.217Z,29.30
2018-07-13T14:47:57.066Z,29.20
2018-07-13T14:50:25.872Z,29.20
2018-07-13T14:52:54.997Z,29.00
2018-07-13T14:55:55.378Z,29.00
2018-07-13T14:58:25.172Z,28.90
2018-07-13T15:00:54.815Z,28.80
2018-07-13T15:05:53.051Z,28.60
2018-07-13T15:08:23.414Z,28.60
2018-07-13T15:15:51.695Z,28.40
2018-07-13T15:20:50.872Z,28.40
2018-07-13T15:23:20.713Z,28.50
2018-07-13T15:25:50.211Z,28.50
2018-07-13T15:30:49.245Z,28.70
2018-07-13T15:35:47.475Z,28.90
2018-07-13T15:40:46.563Z,29.10
2018-07-13T15:43:16.040Z,29.30
2018-07-13T15:45:45.671Z,29.20
2018-07-13T15:48:17.152Z,29.40
2018-07-13T15:50:46.702Z,29.20
2018-07-13T15:55:50.619Z,29.20
2018-07-13T16:00:48.841Z,29.10
2018-07-13T16:03:19.523Z,29.20
2018-07-13T16:05:50.098Z,29.10
2018-07-13T16:10:48.203Z,29.00
2018-07-13T16:13:18.730Z,28.90
2018-07-13T16:15:48.226Z,28.80
2018-07-13T16:18:17.829Z,28.70
2018-07-13T16:20:47.705Z,28.70
2018-07-13T16:23:17.216Z,28.70
2018-07-13T16:25:46.129Z,28.60
2018-07-13T16:28:16.266Z,28.40
2018-07-13T16:30:46.406Z,28.40
2018-07-13T16:33:15.771Z,28.40
2018-07-13T16:35:47.027Z,28.40
2018-07-13T16:38:16.457Z,28.30
2018-07-13T16:40:45.961Z,28.20
2018-07-13T16:45:45.412Z,28.10
2018-07-13T16:48:16.694Z,28.00
2018-07-13T16:50:46.597Z,27.90
2018-07-13T16:53:16.877Z,27.80
2018-07-13T16:55:45.949Z,26.40
2018-07-13T16:58:14.736Z,27.80
2018-07-13T17:00:43.512Z,27.70
2018-07-13T17:05:40.864Z,27.70
2018-07-13T17:08:09.661Z,27.60
2018-07-13T17:10:38.482Z,27.60
2018-07-13T17:15:35.653Z,27.50
2018-07-13T17:18:04.493Z,27.50
2018-07-13T17:20:33.486Z,27.40
2018-07-13T17:23:02.174Z,27.40
2018-07-13T17:25:31.167Z,27.30
2018-07-13T17:28:00.072Z,27.30
2018-07-13T17:30:28.926Z,27.30
2018-07-13T17:32:57.756Z,27.20
2018-07-13T17:35:26.585Z,27.10
2018-07-13T17:37:55.402Z,27.00
2018-07-13T17:43:23.622Z,24.40
2018-07-13T17:45:52.844Z,26.70
2018-07-13T17:48:21.642Z,26.70
2018-07-13T17:50:50.439Z,26.60
2018-07-13T17:53:19.562Z,26.40
2018-07-13T17:55:48.389Z,26.40
2018-07-13T17:58:17.232Z,26.40
2018-07-13T18:00:46.545Z,26.40
2018-07-13T18:03:15.318Z,26.40
2018-07-13T18:05:44.138Z,26.50
2018-07-13T18:08:13.034Z,26.50
2018-07-13T18:10:41.921Z,26.50
2018-07-13T18:13:10.703Z,26.50
2018-07-13T18:15:39.855Z,26.50
2018-07-13T18:18:08.667Z,26.50
2018-07-13T18:20:37.537Z,26.40
2018-07-13T18:23:06.525Z,26.40
2018-07-13T18:25:35.331Z,26.40
2018-07-13T18:28:04.277Z,26.30
2018-07-13T18:30:33.110Z,26.30
2018-07-13T18:35:30.291Z,26.30
2018-07-13T18:37:59.345Z,26.30
2018-07-13T18:40:28.271Z,26.30
2018-07-13T18:42:57.199Z,26.20
2018-07-13T18:45:26.203Z,26.20
2018-07-13T18:47:55.025Z,26.10
2018-07-13T18:50:23.822Z,26.10
2018-07-13T18:52:52.630Z,26.10
2018-07-13T18:57:49.910Z,26.00
2018-07-13T19:00:18.747Z,26.00
2018-07-13T19:02:47.540Z,26.00
2018-07-13T19:05:16.346Z,26.00
2018-07-13T19:07:45.293Z,26.00
2018-07-13T19:10:14.115Z,26.00
2018-07-13T19:12:42.896Z,26.00
2018-07-13T19:17:40.296Z,26.00
2018-07-13T19:20:09.344Z,26.00
2018-07-13T19:25:06.952Z,25.80
2018-07-13T19:30:04.361Z,25.70
2018-07-13T19:32:33.293Z,25.60
2018-07-13T19:35:02.116Z,25.50
2018-07-13T19:37:31.198Z,25.40
2018-07-13T19:40:00.001Z,25.30
2018-07-13T19:42:28.809Z,25.20
2018-07-13T19:44:57.793Z,25.10
2018-07-13T19:47:26.582Z,24.90
2018-07-13T19:49:55.466Z,24.80
2018-07-13T19:52:24.291Z,24.80
2018-07-13T19:54:53.120Z,24.80
2018-07-13T19:57:22.009Z,24.80
2018-07-13T19:59:50.755Z,24.70
2018-07-13T20:02:19.581Z,24.60
2018-07-13T20:04:48.369Z,24.50
2018-07-13T20:07:17.212Z,24.40
2018-07-13T20:09:46.002Z,24.40
2018-07-13T20:12:14.833Z,24.30
2018-07-13T20:14:44.072Z,24.20
2018-07-13T20:17:12.924Z,24.10
2018-07-13T20:22:10.561Z,23.90
2018-07-13T20:24:39.500Z,23.90
2018-07-13T20:27:08.400Z,23.80
2018-07-13T20:29:37.408Z,23.70
2018-07-13T20:32:06.317Z,23.70
2018-07-13T20:34:35.217Z,23.70
2018-07-13T20:37:04.518Z,23.60
2018-07-13T20:39:33.432Z,23.70
2018-07-13T20:42:02.183Z,23.60
2018-07-13T20:44:31.156Z,23.60
2018-07-13T20:49:28.355Z,23.50
2018-07-13T20:51:57.194Z,23.60
2018-07-13T20:54:26.035Z,23.60
2018-07-13T20:56:54.811Z,23.60
2018-07-13T20:59:23.722Z,23.60
2018-07-13T21:01:52.534Z,23.60
2018-07-13T21:04:21.318Z,23.50
2018-07-13T21:06:50.292Z,23.60
2018-07-13T21:09:19.114Z,23.70
2018-07-13T21:11:47.958Z,23.60
2018-07-13T21:16:45.324Z,23.50
2018-07-13T21:19:14.179Z,23.50
2018-07-13T21:24:11.498Z,23.40
2018-07-13T21:29:08.794Z,23.40
2018-07-13T21:31:38.006Z,23.40
2018-07-13T21:34:06.934Z,23.40
2018-07-13T21:36:35.825Z,23.40
2018-07-13T21:39:04.753Z,23.40
2018-07-13T21:41:33.585Z,23.40
2018-07-13T21:44:02.394Z,23.40
2018-07-13T21:46:31.167Z,23.40
2018-07-13T21:48:59.961Z,23.40
2018-07-13T21:51:28.796Z,23.40
2018-07-13T21:53:57.616Z,23.50
2018-07-13T21:56:26.435Z,23.50
2018-07-13T21:58:55.239Z,23.60
2018-07-13T22:01:24.053Z,23.60
2018-07-13T22:03:52.839Z,23.70
2018-07-13T22:06:21.859Z,23.60
2018-07-13T22:11:19.137Z,23.60
2018-07-13T22:13:47.946Z,23.60
2018-07-13T22:16:16.761Z,23.50
2018-07-13T22:21:14.018Z,23.60
2018-07-13T22:23:42.824Z,23.50
2018-07-13T22:26:11.610Z,23.40
2018-07-13T22:28:40.706Z,23.30
2018-07-13T22:31:09.625Z,23.30
2018-07-13T22:33:38.431Z,23.30
2018-07-13T22:36:07.285Z,23.20
2018-07-13T22:38:36.054Z,23.20
2018-07-13T22:41:04.893Z,23.20
2018-07-13T22:43:33.847Z,23.20
2018-07-13T22:46:02.638Z,23.10
2018-07-13T22:48:31.417Z,23.10
2018-07-13T22:51:00.404Z,23.10
2018-07-13T22:53:29.181Z,23.10
2018-07-13T22:55:58.012Z,23.10
2018-07-13T22:58:26.833Z,23.00
2018-07-13T23:00:55.646Z,23.00
2018-07-13T23:05:53.342Z,23.00
2018-07-13T23:08:22.139Z,23.00
2018-07-13T23:10:50.905Z,23.00
2018-07-13T23:13:19.732Z,23.00
2018-07-13T23:15:48.502Z,23.00
2018-07-13T23:18:17.390Z,23.00
2018-07-13T23:20:46.462Z,22.90
2018-07-13T23:23:15.262Z,22.90
2018-07-13T23:25:44.038Z,22.90
2018-07-13T23:28:12.869Z,22.90
2018-07-13T23:30:41.681Z,22.90
2018-07-13T23:33:10.539Z,22.90
2018-07-13T23:35:39.358Z,22.90
2018-07-13T23:38:08.384Z,22.90
2018-07-13T23:43:06.219Z,22.90
2018-07-13T23:45:35.028Z,22.90
2018-07-13T23:48:03.842Z,22.90
2018-07-13T23:50:32.793Z,22.90
2018-07-13T23:53:01.654Z,23.00
2018-07-13T23:55:30.439Z,23.10
2018-07-13T23:57:59.289Z,23.10
